createdAt,value
2023-02-17T00:00:49.207Z,99899.33
2023-02-17T00:03:15.831Z,99890.84
2023-02-17T00:05:42.414Z,99888.02
2023-02-17T00:08:09.807Z,99886.80
2023-02-17T00:10:38.698Z,99885.90
2023-02-17T00:13:05.253Z,99889.06
2023-02-17T00:15:33.962Z,99886.05
2023-02-17T00:18:00.672Z,99885.88
2023-02-17T00:20:30.782Z,99884.48
2023-02-17T00:22:57.755Z,99878.64
2023-02-17T00:25:24.485Z,99880.77
2023-02-17T00:27:51.323Z,99884.30
2023-02-17T00:30:18.219Z,99883.08
2023-02-17T00:32:44.931Z,99882.21
2023-02-17T00:35:12.582Z,99878.70
2023-02-17T00:37:45.404Z,99876.95
2023-02-17T00:40:12.830Z,99871.66
2023-02-17T00:42:43.788Z,99870.59
2023-02-17T00:45:10.422Z,99867.27
2023-02-17T00:47:37.030Z,99863.56
2023-02-17T00:50:05.154Z,99865.86
2023-02-17T00:52:31.802Z,99861.63
2023-02-17T00:54:58.411Z,99858.80
2023-02-17T00:57:25.688Z,99859.35
2023-02-17T00:59:53.093Z,99854.27
2023-02-17T01:02:19.725Z,99854.63
2023-02-17T01:04:46.330Z,99853.91
2023-02-17T01:07:15.347Z,99853.73
2023-02-17T01:09:42.260Z,99848.45
2023-02-17T01:12:11.805Z,99846.31
2023-02-17T01:14:38.640Z,99845.27
2023-02-17T01:17:05.844Z,99843.84
2023-02-17T01:19:32.842Z,99844.74
2023-02-17T01:21:59.535Z,99842.08
2023-02-17T01:24:27.003Z,99836.28
2023-02-17T01:26:53.772Z,99839.78
2023-02-17T01:29:21.163Z,99836.80
2023-02-17T01:31:48.314Z,99841.20
2023-02-17T01:34:17.728Z,99840.11
2023-02-17T01:36:44.907Z,99840.30
2023-02-17T01:39:14.688Z,99837.45
2023-02-17T01:41:41.864Z,99840.09
2023-02-17T01:44:18.791Z,99836.39
2023-02-17T01:46:46.750Z,99838.66
2023-02-17T01:49:18.279Z,99837.44
2023-02-17T01:51:49.178Z,99835.67
2023-02-17T01:54:18.932Z,99830.21
2023-02-17T01:56:46.531Z,99831.09
2023-02-17T01:59:20.449Z,99828.63
2023-02-17T02:01:50.315Z,99829.14
2023-02-17T02:04:18.615Z,99834.06
2023-02-17T02:06:47.620Z,99828.76
2023-02-17T02:09:27.631Z,99829.64
2023-02-17T02:11:59.357Z,99822.58
2023-02-17T02:14:31.317Z,99823.25
2023-02-17T02:17:20.787Z,99826.23
2023-02-17T02:19:56.696Z,99831.89
2023-02-17T02:22:34.158Z,99826.95
2023-02-17T02:25:13.171Z,99823.59
2023-02-17T02:27:43.145Z,99824.48
2023-02-17T02:30:25.731Z,99823.77
2023-02-17T02:32:57.230Z,99823.73
2023-02-17T02:35:28.288Z,99823.73
2023-02-17T02:38:00.929Z,99822.11
2023-02-17T02:40:30.565Z,99827.77
2023-02-17T02:42:57.319Z,99832.52
2023-02-17T02:45:24.028Z,99836.23
2023-02-17T02:47:52.388Z,99837.13
2023-02-17T02:50:38.687Z,99841.55
2023-02-17T02:53:31.592Z,99840.85
2023-02-17T02:56:05.694Z,99844.56
2023-02-17T02:58:32.884Z,99850.23
2023-02-17T03:01:13.364Z,99854.65
2023-02-17T03:03:48.932Z,99853.78
2023-02-17T03:06:22.488Z,99855.39
2023-02-17T03:09:08.786Z,99856.83
2023-02-17T03:11:36.106Z,99852.23
2023-02-17T03:14:11.577Z,99851.71
2023-02-17T03:16:39.324Z,99857.16
2023-02-17T03:19:06.557Z,99855.92
2023-02-17T03:21:38.091Z,99860.69
2023-02-17T03:24:05.886Z,99860.69
2023-02-17T03:26:32.715Z,99858.73
2023-02-17T03:29:01.153Z,99859.80
2023-02-17T03:31:30.912Z,99853.96
2023-02-17T03:33:58.795Z,99851.83
2023-02-17T03:36:25.641Z,99850.75
2023-02-17T03:38:56.485Z,99853.20
2023-02-17T03:41:23.307Z,99852.29
2023-02-17T03:43:50.101Z,99851.94
2023-02-17T03:46:17.056Z,99852.27
2023-02-17T03:48:43.907Z,99852.98
2023-02-17T03:51:18.388Z,99852.82
2023-02-17T03:53:49.431Z,99848.42
2023-02-17T03:56:16.484Z,99853.00
2023-02-17T03:58:43.625Z,99852.83
2023-02-17T04:01:11.660Z,99854.41
2023-02-17T04:03:40.486Z,99854.59
2023-02-17T04:06:09.191Z,99853.00
2023-02-17T04:08:38.570Z,99854.23
2023-02-17T04:11:08.746Z,99855.29
2023-02-17T04:13:39.512Z,99854.23
2023-02-17T04:16:10.717Z,99857.41
2023-02-17T04:18:41.252Z,99860.05
2023-02-17T04:21:11.680Z,99864.23
2023-02-17T04:23:40.223Z,99861.40
2023-02-17T04:26:08.704Z,99863.66
2023-02-17T04:28:41.129Z,99862.95
2023-02-17T04:31:10.096Z,99856.62
2023-02-17T04:33:41.030Z,99858.54
2023-02-17T04:36:11.735Z,99856.41
2023-02-17T04:38:41.714Z,99859.96
2023-02-17T04:41:11.783Z,99866.32
2023-02-17T04:43:41.105Z,99865.08
2023-02-17T04:46:11.215Z,99871.63
2023-02-17T04:48:43.787Z,99873.61
2023-02-17T04:51:13.041Z,99873.64
2023-02-17T04:53:42.392Z,99876.66
2023-02-17T04:56:12.179Z,99874.22
2023-02-17T04:58:41.945Z,99876.91
2023-02-17T05:01:10.864Z,99877.29
2023-02-17T05:03:39.784Z,99878.33
2023-02-17T05:22:55.747Z,99875.05
2023-02-17T05:25:24.107Z,99876.33
2023-02-17T05:27:53.087Z,99877.28
2023-02-17T05:30:21.339Z,99882.50
2023-02-17T05:32:51.209Z,99893.73
2023-02-17T05:35:19.909Z,99896.11
2023-02-17T05:37:47.961Z,99898.48
2023-02-17T05:40:16.832Z,99901.18
2023-02-17T05:42:45.477Z,99906.36
2023-02-17T05:45:13.603Z,99910.61
2023-02-17T05:47:41.760Z,99911.36
2023-02-17T05:50:10.497Z,99916.00
2023-02-17T05:52:38.772Z,99919.00
2023-02-17T05:55:07.284Z,99916.77
2023-02-17T05:57:35.835Z,99915.90
2023-02-17T06:00:04.777Z,99914.13
2023-02-17T06:02:40.254Z,99914.30
2023-02-17T06:05:09.475Z,99915.70
2023-02-17T06:07:38.972Z,99915.52
2023-02-17T06:10:08.695Z,99919.56
2023-02-17T06:12:36.874Z,99922.91
2023-02-17T06:15:05.627Z,99927.34
2023-02-17T06:17:34.276Z,99933.17
2023-02-17T06:20:02.307Z,99931.42
2023-02-17T06:24:17.694Z,99937.20
2023-02-17T06:26:45.914Z,99935.49
2023-02-17T06:29:13.943Z,99936.20
2023-02-17T06:31:43.319Z,99934.75
2023-02-17T06:34:12.177Z,99940.42
2023-02-17T06:36:41.250Z,99946.44
2023-02-17T06:39:09.414Z,99950.51
2023-02-17T06:41:37.600Z,99951.23
2023-02-17T06:44:14.159Z,99949.48
2023-02-17T06:46:46.183Z,99949.52
2023-02-17T06:49:14.823Z,99952.38
2023-02-17T06:51:43.913Z,99950.97
2023-02-17T06:54:12.398Z,99953.62
2023-02-17T06:56:40.541Z,99954.34
2023-02-17T06:59:08.741Z,99955.56
2023-02-17T07:01:37.664Z,99956.08
2023-02-17T07:04:06.200Z,99956.95
2023-02-17T07:06:38.925Z,99955.36
2023-02-17T07:09:07.520Z,99957.48
2023-02-17T07:11:36.009Z,99961.02
2023-02-17T07:14:05.516Z,99965.75
2023-02-17T07:16:33.824Z,99966.30
2023-02-17T07:19:05.210Z,99965.29
2023-02-17T07:21:34.285Z,99967.52
2023-02-17T07:24:03.468Z,99965.51
2023-02-17T07:26:36.925Z,99969.17
2023-02-17T07:29:05.290Z,99973.60
2023-02-17T07:31:34.263Z,99972.17
2023-02-17T07:34:02.901Z,99972.52
2023-02-17T07:36:33.814Z,99975.17
2023-02-17T07:39:03.422Z,99970.77
2023-02-17T07:41:33.701Z,99973.77
2023-02-17T07:44:06.958Z,99981.70
2023-02-17T07:46:35.095Z,99984.00
2023-02-17T07:49:03.178Z,99985.23
2023-02-17T07:51:31.280Z,99990.71
2023-02-17T07:54:00.836Z,99992.86
2023-02-17T07:56:30.225Z,99991.47
2023-02-17T07:58:59.672Z,99994.84
2023-02-17T08:01:28.047Z,99991.52
2023-02-17T08:04:03.231Z,99990.67
2023-02-17T08:06:33.828Z,99987.36
2023-02-17T08:09:20.636Z,99994.46
2023-02-17T08:12:07.564Z,99995.91
2023-02-17T08:14:37.397Z,99999.38
2023-02-17T08:17:06.940Z,99998.30
2023-02-17T08:19:47.529Z,99996.04
2023-02-17T08:22:20.370Z,99998.23
2023-02-17T08:24:49.495Z,100003.58
2023-02-17T08:27:18.224Z,100009.77
2023-02-17T08:29:46.593Z,100011.52
2023-02-17T08:32:15.255Z,100012.23
2023-02-17T08:34:44.474Z,100017.67
2023-02-17T08:37:12.623Z,100017.33
2023-02-17T08:39:40.986Z,100017.88
2023-02-17T08:42:09.515Z,100018.41
2023-02-17T08:44:38.565Z,100022.14
2023-02-17T08:47:11.908Z,100024.43
2023-02-17T08:49:40.024Z,100029.02
2023-02-17T08:52:08.683Z,100027.96
2023-02-17T08:54:37.774Z,100026.34
2023-02-17T08:57:06.772Z,100022.10
2023-02-17T08:59:35.151Z,100021.05
2023-02-17T09:02:04.271Z,100022.27
2023-02-17T09:04:32.749Z,100031.96
2023-02-17T09:07:01.298Z,100037.06
2023-02-17T09:09:29.897Z,100037.26
2023-02-17T09:11:58.828Z,100037.78
2023-02-17T09:14:27.955Z,100040.98
2023-02-17T09:16:57.119Z,100042.56
2023-02-17T09:19:27.166Z,100048.73
2023-02-17T09:21:56.048Z,100052.45
2023-02-17T09:24:24.137Z,100051.77
2023-02-17T09:26:52.175Z,100055.83
2023-02-17T09:29:20.415Z,100052.14
2023-02-17T09:31:48.640Z,100052.67
2023-02-17T09:34:17.384Z,100049.86
2023-02-17T09:36:46.233Z,100050.38
2023-02-17T09:39:15.079Z,100048.95
2023-02-17T09:41:48.031Z,100047.51
2023-02-17T09:44:45.684Z,100042.91
2023-02-17T09:47:25.306Z,100045.40
2023-02-17T09:49:59.091Z,100048.40
2023-02-17T09:52:53.771Z,100045.56
2023-02-17T09:55:30.076Z,100045.73
2023-02-17T09:58:07.071Z,100041.34
2023-02-17T10:00:38.356Z,100043.27
2023-02-17T10:03:18.909Z,100041.52
2023-02-17T10:05:58.862Z,100041.16
2023-02-17T10:08:30.819Z,100040.29
2023-02-17T10:11:05.404Z,100037.05
2023-02-17T10:13:38.280Z,100036.99
2023-02-17T10:16:09.932Z,100038.59
2023-02-17T10:18:46.867Z,100040.91
2023-02-17T10:21:25.395Z,100040.61
2023-02-17T10:23:53.997Z,100039.38
2023-02-17T10:26:40.897Z,100040.28
2023-02-17T10:29:31.226Z,100035.16
2023-02-17T10:32:11.657Z,100031.48
2023-02-17T10:35:03.513Z,100036.58
2023-02-17T10:37:47.673Z,100039.21
2023-02-17T10:40:17.643Z,100039.05
2023-02-17T10:42:47.910Z,100043.98
2023-02-17T10:45:21.900Z,100042.55
2023-02-17T10:47:49.867Z,100042.19
2023-02-17T10:50:22.683Z,100040.80
2023-02-17T10:52:51.201Z,100040.44
2023-02-17T10:55:38.569Z,100039.89
2023-02-17T10:58:25.525Z,100037.77
2023-02-17T11:00:56.617Z,100040.06
2023-02-17T11:03:27.312Z,100034.57
2023-02-17T11:06:02.744Z,100032.45
2023-02-17T11:08:39.846Z,100034.71
2023-02-17T11:11:17.485Z,100028.66
2023-02-17T11:14:05.941Z,100032.70
2023-02-17T11:16:59.063Z,100029.48
2023-02-17T11:19:28.954Z,100034.08
2023-02-17T11:21:58.940Z,100032.81
2023-02-17T11:24:28.673Z,100038.06
2023-02-17T11:26:58.573Z,100032.86
2023-02-17T11:29:30.367Z,100034.42
2023-02-17T11:32:08.513Z,100032.81
2023-02-17T11:34:39.126Z,100035.63
2023-02-17T11:37:13.382Z,100035.12
2023-02-17T11:39:49.542Z,100033.71
2023-02-17T11:42:37.745Z,100032.48
2023-02-17T11:45:19.083Z,100031.95
2023-02-17T11:48:19.885Z,100032.45
2023-02-17T11:51:14.415Z,100028.74
2023-02-17T11:53:45.766Z,100022.90
2023-02-17T11:56:17.251Z,100022.36
2023-02-17T11:58:54.809Z,100013.52
2023-02-17T12:01:43.906Z,100023.55
2023-02-17T12:04:31.295Z,100024.60
2023-02-17T12:07:26.206Z,100024.10
2023-02-17T12:10:11.191Z,100022.34
2023-02-17T12:13:04.695Z,100023.04
2023-02-17T12:15:45.140Z,100021.41
2023-02-17T12:18:22.967Z,100025.30
2023-02-17T12:20:54.585Z,100026.36
2023-02-17T12:23:38.607Z,100020.54
2023-02-17T12:26:32.128Z,100021.27
2023-02-17T12:29:11.452Z,100020.90
2023-02-17T12:32:17.632Z,100025.83
2023-02-17T12:35:30.858Z,100022.63
2023-02-17T12:38:02.166Z,100022.30
2023-02-17T12:40:52.473Z,100022.65
2023-02-17T12:43:27.229Z,100024.77
2023-02-17T12:45:57.574Z,100024.95
2023-02-17T12:48:37.210Z,100028.30
2023-02-17T12:51:15.567Z,100028.08
2023-02-17T12:53:49.701Z,100022.92
2023-02-17T12:56:21.034Z,100021.36
2023-02-17T12:58:49.881Z,100022.76
2023-02-17T13:01:19.986Z,100019.15
2023-02-17T13:03:49.938Z,100018.25
2023-02-17T13:06:25.819Z,100020.73
2023-02-17T13:09:13.884Z,100018.27
2023-02-17T13:11:41.983Z,100018.67
2023-02-17T13:14:12.246Z,100016.38
2023-02-17T13:16:44.865Z,100017.59
2023-02-17T13:19:14.636Z,100012.42
2023-02-17T13:21:54.349Z,100012.79
2023-02-17T13:24:39.212Z,100010.12
2023-02-17T13:27:40.161Z,100006.83
2023-02-17T13:30:29.132Z,100007.95
2023-02-17T13:33:05.556Z,100006.58
2023-02-17T13:35:36.185Z,100006.85
2023-02-17T13:38:04.248Z,100009.23
2023-02-17T13:40:35.922Z,100008.59
2023-02-17T13:43:18.125Z,100008.48
2023-02-17T13:46:04.053Z,100006.41
2023-02-17T13:48:34.554Z,100002.96
2023-02-17T13:51:07.164Z,100002.15
2023-02-17T13:53:40.246Z,99998.47
2023-02-17T13:56:12.066Z,100008.69
2023-02-17T13:58:42.044Z,100010.83
2023-02-17T14:01:18.375Z,100018.23
2023-02-17T14:03:51.660Z,100015.58
2023-02-17T14:06:40.667Z,100014.17
2023-02-17T14:09:32.005Z,100014.66
2023-02-17T14:12:02.780Z,100015.02
2023-02-17T14:14:33.003Z,100018.23
2023-02-17T14:17:32.791Z,100018.40
2023-02-17T14:20:04.714Z,100020.33
2023-02-17T14:22:34.985Z,100019.64
2023-02-17T14:25:13.514Z,100018.06
2023-02-17T14:27:49.928Z,100016.30
2023-02-17T14:30:37.829Z,100015.10
2023-02-17T14:33:07.348Z,100014.09
2023-02-17T14:35:35.598Z,100015.84
2023-02-17T14:38:09.205Z,100013.73
2023-02-17T14:40:40.009Z,100019.03
2023-02-17T14:43:09.069Z,100021.67
2023-02-17T14:45:37.494Z,100022.90
2023-02-17T14:48:07.159Z,100026.08
2023-02-17T14:50:42.493Z,100026.26
2023-02-17T14:53:32.815Z,100024.85
2023-02-17T14:56:02.682Z,100025.02
2023-02-17T14:58:35.768Z,100022.55
2023-02-17T15:01:05.966Z,100016.73
2023-02-17T15:03:34.218Z,100013.36
2023-02-17T15:06:02.558Z,100014.75
2023-02-17T15:08:34.438Z,100019.70
2023-02-17T15:11:02.825Z,100021.99
2023-02-17T15:13:32.190Z,100023.58
2023-02-17T15:16:09.362Z,100023.20
2023-02-17T15:18:42.768Z,100021.94
2023-02-17T15:21:28.077Z,100024.50
2023-02-17T15:24:18.325Z,100026.67
2023-02-17T15:26:48.363Z,100028.43
2023-02-17T15:29:24.051Z,100030.06
2023-02-17T15:31:55.877Z,100027.88
2023-02-17T15:34:26.710Z,100026.05
2023-02-17T15:36:54.811Z,100024.65
2023-02-17T15:39:23.131Z,100021.86
2023-02-17T15:41:52.420Z,100020.80
2023-02-17T15:44:25.480Z,100023.09
2023-02-17T15:46:55.127Z,100025.91
2023-02-17T15:49:23.349Z,100027.66
2023-02-17T15:51:51.513Z,100021.86
2023-02-17T15:54:20.664Z,100019.92
2023-02-17T15:56:50.945Z,100015.33
2023-02-17T15:59:24.342Z,100013.39
2023-02-17T16:01:56.146Z,100007.93
2023-02-17T16:04:24.383Z,100004.92
2023-02-17T16:06:52.554Z,100005.45
2023-02-17T16:09:21.815Z,100007.55
2023-02-17T16:11:51.910Z,100006.42
2023-02-17T16:14:28.639Z,100009.73
2023-02-17T16:17:00.150Z,100003.85
2023-02-17T16:19:28.691Z,100007.16
2023-02-17T16:21:57.046Z,100005.89
2023-02-17T16:24:25.089Z,100005.70
2023-02-17T16:26:53.946Z,100008.71
2023-02-17T16:29:22.302Z,100009.59
2023-02-17T16:31:50.620Z,100003.95
2023-02-17T16:34:23.591Z,100004.80
2023-02-17T16:36:53.761Z,100013.94
2023-02-17T16:39:22.399Z,100017.10
2023-02-17T16:41:50.685Z,100015.50
2023-02-17T16:44:20.948Z,100021.98
2023-02-17T16:46:53.378Z,100021.03
2023-02-17T16:49:32.093Z,100018.05
2023-02-17T16:52:05.490Z,100016.70
2023-02-17T16:54:35.738Z,100013.71
2023-02-17T16:57:04.017Z,100014.69
2023-02-17T16:59:33.061Z,100013.38
2023-02-17T17:02:01.942Z,100009.78
2023-02-17T17:04:30.280Z,100013.63
2023-02-17T17:06:58.999Z,100010.86
2023-02-17T17:09:28.144Z,100007.77
2023-02-17T17:11:57.550Z,100008.02
2023-02-17T17:14:25.776Z,100002.80
2023-02-17T17:17:01.125Z,99994.58
2023-02-17T17:19:29.549Z,99990.06
2023-02-17T17:21:57.722Z,99992.55
2023-02-17T17:24:26.137Z,99981.69
2023-02-17T17:26:56.056Z,99973.80
2023-02-17T17:29:25.050Z,99971.70
2023-02-17T17:31:53.310Z,99961.34
2023-02-17T17:34:21.822Z,99960.28
2023-02-17T17:36:49.953Z,99958.20
2023-02-17T17:39:20.920Z,99954.30
2023-02-17T17:41:49.791Z,99950.39
2023-02-17T17:44:18.148Z,99942.30
2023-02-17T17:46:46.655Z,99939.82
2023-02-17T17:49:14.932Z,99936.99
2023-02-17T17:51:43.414Z,99940.48
2023-02-17T17:54:11.605Z,99937.30
2023-02-17T17:56:43.074Z,99927.48
2023-02-17T17:59:12.860Z,99928.02
2023-02-17T18:01:43.910Z,99923.39
2023-02-17T18:04:13.944Z,99926.15
2023-02-17T18:06:47.635Z,99925.27
2023-02-17T18:09:31.147Z,99919.29
2023-02-17T18:12:12.711Z,99916.67
2023-02-17T18:14:42.471Z,99910.37
2023-02-17T18:17:12.072Z,99913.76
2023-02-17T18:19:40.170Z,99913.45
2023-02-17T18:22:08.324Z,99903.63
2023-02-17T18:24:36.693Z,99897.11
2023-02-17T18:34:59.497Z,99870.63
2023-02-17T18:37:27.960Z,99866.91
2023-02-17T18:42:21.664Z,99872.39
2023-02-17T18:44:49.844Z,99862.70
2023-02-17T18:47:18.217Z,99855.20
2023-02-17T18:49:46.937Z,99851.69
2023-02-17T18:52:15.110Z,99854.84
2023-02-17T18:54:45.198Z,99854.50
2023-02-17T18:57:16.791Z,99849.10
2023-02-17T18:59:45.975Z,99845.30
2023-02-17T19:02:14.257Z,99843.74
2023-02-17T19:04:45.078Z,99840.42
2023-02-17T19:07:13.573Z,99843.60
2023-02-17T19:09:45.014Z,99842.56
2023-02-17T19:12:13.807Z,99837.11
2023-02-17T19:14:42.742Z,99835.55
2023-02-17T19:17:12.300Z,99838.17
2023-02-17T19:19:41.287Z,99838.02
2023-02-17T19:22:09.882Z,99838.02
2023-02-17T19:24:39.071Z,99830.11
2023-02-17T19:27:07.100Z,99831.16
2023-02-17T19:29:35.528Z,99821.48
2023-02-17T19:32:04.662Z,99825.52
2023-02-17T19:34:34.388Z,99824.11
2023-02-17T19:37:03.130Z,99822.68
2023-02-17T19:39:31.819Z,99821.98
2023-02-17T19:42:00.375Z,99811.92
2023-02-17T19:44:30.518Z,99804.88
2023-02-17T19:46:59.014Z,99802.41
2023-02-17T19:49:27.239Z,99790.21
2023-02-17T19:51:56.020Z,99785.92
2023-02-17T19:54:24.867Z,99775.52
2023-02-17T19:56:53.358Z,99765.66
2023-02-17T19:59:21.523Z,99760.93
2023-02-17T20:01:49.673Z,99755.15
2023-02-17T20:04:17.774Z,99758.16
2023-02-17T20:06:48.043Z,99761.51
2023-02-17T20:09:18.265Z,99761.70
2023-02-17T20:11:47.518Z,99753.41
2023-02-17T20:14:16.921Z,99750.42
2023-02-17T20:16:48.888Z,99744.71
2023-02-17T20:19:17.369Z,99739.02
2023-02-17T20:21:46.014Z,99734.46
2023-02-17T20:24:15.662Z,99730.80
2023-02-17T20:26:45.610Z,99726.58
2023-02-17T20:29:16.326Z,99721.30
2023-02-17T20:31:52.509Z,99716.89
2023-02-17T20:34:35.933Z,99710.58
2023-02-17T20:37:06.480Z,99702.50
2023-02-17T20:39:35.918Z,99698.83
2023-02-17T20:42:04.438Z,99696.73
2023-02-17T20:44:32.881Z,99697.23
2023-02-17T20:47:01.499Z,99694.36
2023-02-17T20:49:30.384Z,99688.34
2023-02-17T20:51:59.420Z,99683.56
2023-02-17T20:54:27.606Z,99672.42
2023-02-17T20:56:58.212Z,99670.48
2023-02-17T20:59:27.311Z,99668.18
2023-02-17T21:01:55.900Z,99664.31
2023-02-17T21:04:25.633Z,99657.98
2023-02-17T21:06:54.096Z,99649.36
2023-02-17T21:09:22.560Z,99647.98
2023-02-17T21:11:51.104Z,99641.25
2023-02-17T21:14:19.271Z,99633.61
2023-02-17T21:16:47.934Z,99625.49
2023-02-17T21:19:16.800Z,99616.91
2023-02-17T21:21:46.712Z,99606.25
2023-02-17T21:24:14.792Z,99603.79
2023-02-17T21:26:43.494Z,99596.03
2023-02-17T21:29:11.744Z,99591.12
2023-02-17T21:31:39.988Z,99583.91
2023-02-17T21:34:09.230Z,99581.50
2023-02-17T21:36:37.368Z,99574.23
2023-02-17T21:39:05.614Z,99562.17
2023-02-17T21:41:34.592Z,99555.61
2023-02-17T21:44:22.877Z,99550.64
2023-02-17T21:46:52.024Z,99540.73
2023-02-17T21:49:20.230Z,99537.73
2023-02-17T21:51:48.367Z,99537.23
2023-02-17T21:54:17.050Z,99537.08
2023-02-17T21:56:46.355Z,99533.04
2023-02-17T21:59:14.649Z,99527.19
2023-02-17T22:01:43.119Z,99521.96
2023-02-17T22:04:11.537Z,99514.63
2023-02-17T22:06:40.844Z,99517.09
2023-02-17T22:09:10.049Z,99509.70
2023-02-17T22:11:39.946Z,99507.42
2023-02-17T22:14:12.115Z,99498.06
2023-02-17T22:16:40.348Z,99487.80
2023-02-17T22:19:10.672Z,99484.81
2023-02-17T22:21:38.707Z,99477.58
2023-02-17T22:24:08.475Z,99473.53
2023-02-17T22:26:36.823Z,99470.77
2023-02-17T22:29:05.143Z,99471.68
2023-02-17T22:31:34.530Z,99460.55
2023-02-17T22:34:07.947Z,99463.05
2023-02-17T22:36:37.053Z,99466.42
2023-02-17T22:39:06.367Z,99460.79
2023-02-17T22:41:35.075Z,99455.85
2023-02-17T22:44:03.494Z,99459.17
2023-02-17T22:46:31.662Z,99452.26
2023-02-17T22:49:00.301Z,99447.13
2023-02-17T22:51:34.998Z,99456.48
2023-02-17T22:54:03.492Z,99450.30
2023-02-17T22:56:36.250Z,99441.52
2023-02-17T22:59:06.130Z,99437.85
2023-02-17T23:01:35.588Z,99432.15
2023-02-17T23:04:04.167Z,99421.39
2023-02-17T23:06:34.325Z,99425.45
2023-02-17T23:09:02.685Z,99420.09
2023-02-17T23:11:51.540Z,99425.52
2023-02-17T23:14:33.760Z,99421.95
2023-02-17T23:17:04.818Z,99420.19
2023-02-17T23:19:36.441Z,99414.36
2023-02-17T23:22:14.622Z,99414.50
2023-02-17T23:24:44.244Z,99413.95
2023-02-17T23:27:12.631Z,99406.02
2023-02-17T23:29:41.522Z,99394.34
2023-02-17T23:32:10.788Z,99393.91
2023-02-17T23:34:40.427Z,99385.14
2023-02-17T23:37:08.521Z,99383.24
2023-02-17T23:39:38.214Z,99376.38
2023-02-17T23:42:08.191Z,99373.73
2023-02-17T23:44:37.964Z,99369.35
2023-02-17T23:47:06.623Z,99369.44
2023-02-17T23:49:35.077Z,99358.40
2023-02-17T23:52:03.325Z,99349.09
2023-02-17T23:54:31.391Z,99347.24
2023-02-17T23:56:59.649Z,99343.05
2023-02-17T23:59:27.891Z,99332.41
